sensor_id;sensor_type;location;lat;lon;timestamp;pressure;altitude;pressure_sealevel;temperature;humidity
55490;BME280;44029;52.956;4.772;2023-02-19T00:01:23;101754.66;;;10.51;100.00
55490;BME280;44029;52.956;4.772;2023-02-19T00:03:54;101755.81;;;10.43;100.00
55490;BME280;44029;52.956;4.772;2023-02-19T00:06:22;101755.97;;;10.48;100.00
55490;BME280;44029;52.956;4.772;2023-02-19T00:08:48;101755.88;;;10.36;100.00
55490;BME280;44029;52.956;4.772;2023-02-19T00:11:15;101757.34;;;10.39;100.00
55490;BME280;44029;52.956;4.772;2023-02-19T00:13:44;101761.13;;;10.38;100.00
55490;BME280;44029;52.956;4.772;2023-02-19T00:16:14;101762.91;;;10.51;100.00
55490;BME280;44029;52.956;4.772;2023-02-19T00:18:40;101764.94;;;10.37;100.00
55490;BME280;44029;52.956;4.772;2023-02-19T00:21:05;101770.03;;;10.33;100.00
55490;BME280;44029;52.956;4.772;2023-02-19T00:23:31;101767.38;;;10.45;100.00
55490;BME280;44029;52.956;4.772;2023-02-19T00:26:02;101761.75;;;10.58;100.00
55490;BME280;44029;52.956;4.772;2023-02-19T00:28:27;101765.94;;;10.42;100.00
55490;BME280;44029;52.956;4.772;2023-02-19T00:30:53;101766.81;;;10.36;100.00
55490;BME280;44029;52.956;4.772;2023-02-19T00:33:18;101766.78;;;10.43;100.00
55490;BME280;44029;52.956;4.772;2023-02-19T00:35:43;101757.94;;;10.41;100.00
55490;BME280;44029;52.956;4.772;2023-02-19T00:38:09;101769.34;;;10.38;100.00
55490;BME280;44029;52.956;4.772;2023-02-19T00:40:34;101762.88;;;10.32;100.00
55490;BME280;44029;52.956;4.772;2023-02-19T00:43:00;101766.09;;;10.22;100.00
55490;BME280;44029;52.956;4.772;2023-02-19T00:45:25;101777.22;;;10.28;100.00
55490;BME280;44029;52.956;4.772;2023-02-19T00:47:51;101778.03;;;10.35;100.00
55490;BME280;44029;52.956;4.772;2023-02-19T00:50:17;101775.53;;;10.26;100.00
55490;BME280;44029;52.956;4.772;2023-02-19T00:52:42;101783.34;;;10.23;100.00
55490;BME280;44029;52.956;4.772;2023-02-19T00:55:08;101773.97;;;10.12;100.00
55490;BME280;44029;52.956;4.772;2023-02-19T00:57:33;101775.06;;;10.11;100.00
55490;BME280;44029;52.956;4.772;2023-02-19T00:59:58;101778.50;;;10.25;100.00
55490;BME280;44029;52.956;4.772;2023-02-19T01:02:24;101783.44;;;10.16;100.00
55490;BME280;44029;52.956;4.772;2023-02-19T01:04:51;101787.78;;;10.24;100.00
55490;BME280;44029;52.956;4.772;2023-02-19T01:07:17;101792.66;;;10.22;100.00
55490;BME280;44029;52.956;4.772;2023-02-19T01:09:42;101790.78;;;10.16;100.00
55490;BME280;44029;52.956;4.772;2023-02-19T01:12:07;101790.41;;;10.12;100.00
55490;BME280;44029;52.956;4.772;2023-02-19T01:14:33;101797.13;;;10.16;100.00
55490;BME280;44029;52.956;4.772;2023-02-19T01:16:58;101801.75;;;10.16;100.00
55490;BME280;44029;52.956;4.772;2023-02-19T01:19:23;101801.13;;;10.14;100.00
55490;BME280;44029;52.956;4.772;2023-02-19T01:21:49;101807.00;;;10.17;100.00
55490;BME280;44029;52.956;4.772;2023-02-19T01:24:14;101810.88;;;10.10;100.00
55490;BME280;44029;52.956;4.772;2023-02-19T01:26:41;101811.88;;;10.15;100.00
55490;BME280;44029;52.956;4.772;2023-02-19T01:29:07;101814.09;;;10.00;100.00
55490;BME280;44029;52.956;4.772;2023-02-19T01:31:32;101813.00;;;10.07;100.00
55490;BME280;44029;52.956;4.772;2023-02-19T01:34:00;101805.09;;;10.18;100.00
55490;BME280;44029;52.956;4.772;2023-02-19T01:36:26;101813.00;;;10.07;100.00
55490;BME280;44029;52.956;4.772;2023-02-19T01:38:52;101808.69;;;10.18;100.00
55490;BME280;44029;52.956;4.772;2023-02-19T01:41:23;101812.81;;;10.28;100.00
55490;BME280;44029;52.956;4.772;2023-02-19T01:46:43;101816.56;;;10.08;100.00
55490;BME280;44029;52.956;4.772;2023-02-19T01:49:27;101822.09;;;10.26;100.00
55490;BME280;44029;52.956;4.772;2023-02-19T01:52:03;101818.41;;;10.14;100.00
55490;BME280;44029;52.956;4.772;2023-02-19T01:54:33;101824.44;;;9.98;100.00
55490;BME280;44029;52.956;4.772;2023-02-19T01:57:01;101831.75;;;10.04;100.00
55490;BME280;44029;52.956;4.772;2023-02-19T01:59:30;101834.09;;;10.00;100.00
55490;BME280;44029;52.956;4.772;2023-02-19T02:01:56;101835.88;;;9.88;100.00
55490;BME280;44029;52.956;4.772;2023-02-19T02:04:22;101837.59;;;9.82;100.00
55490;BME280;44029;52.956;4.772;2023-02-19T02:06:51;101845.88;;;10.01;100.00
55490;BME280;44029;52.956;4.772;2023-02-19T02:09:21;101845.88;;;10.01;100.00
55490;BME280;44029;52.956;4.772;2023-02-19T02:12:07;101849.34;;;9.90;100.00
55490;BME280;44029;52.956;4.772;2023-02-19T02:14:36;101853.88;;;10.02;100.00
55490;BME280;44029;52.956;4.772;2023-02-19T02:17:27;101849.72;;;9.93;100.00
55490;BME280;44029;52.956;4.772;2023-02-19T02:22:40;101866.28;;;9.73;100.00
55490;BME280;44029;52.956;4.772;2023-02-19T02:31:32;101862.16;;;9.96;100.00
55490;BME280;44029;52.956;4.772;2023-02-19T02:34:29;101869.50;;;9.95;100.00
55490;BME280;44029;52.956;4.772;2023-02-19T02:36:58;101858.06;;;9.73;100.00
55490;BME280;44029;52.956;4.772;2023-02-19T02:39:26;101869.56;;;9.89;100.00
55490;BME280;44029;52.956;4.772;2023-02-19T02:41:57;101872.94;;;9.84;100.00
55490;BME280;44029;52.956;4.772;2023-02-19T02:44:41;101875.09;;;9.75;100.00
55490;BME280;44029;52.956;4.772;2023-02-19T02:47:29;101886.44;;;9.79;100.00
55490;BME280;44029;52.956;4.772;2023-02-19T02:50:13;101884.34;;;9.81;100.00
55490;BME280;44029;52.956;4.772;2023-02-19T02:52:41;101882.25;;;9.76;100.00
55490;BME280;44029;52.956;4.772;2023-02-19T02:55:30;101885.00;;;9.76;100.00
55490;BME280;44029;52.956;4.772;2023-02-19T02:57:57;101894.78;;;9.59;100.00
55490;BME280;44029;52.956;4.772;2023-02-19T03:00:23;101899.19;;;9.60;100.00
55490;BME280;44029;52.956;4.772;2023-02-19T03:03:11;101895.84;;;9.51;100.00
55490;BME280;44029;52.956;4.772;2023-02-19T03:05:36;101905.94;;;9.51;100.00
55490;BME280;44029;52.956;4.772;2023-02-19T03:08:29;101914.50;;;9.67;100.00
55490;BME280;44029;52.956;4.772;2023-02-19T03:13:44;101913.53;;;9.48;100.00
55490;BME280;44029;52.956;4.772;2023-02-19T03:16:32;101917.91;;;9.63;100.00
55490;BME280;44029;52.956;4.772;2023-02-19T03:19:18;101921.50;;;9.57;100.00
55490;BME280;44029;52.956;4.772;2023-02-19T03:21:48;101922.50;;;9.69;100.00
55490;BME280;44029;52.956;4.772;2023-02-19T03:24:17;101918.75;;;9.57;100.00
55490;BME280;44029;52.956;4.772;2023-02-19T03:27:03;101927.47;;;9.40;100.00
55490;BME280;44029;52.956;4.772;2023-02-19T03:29:31;101924.69;;;9.54;100.00
55490;BME280;44029;52.956;4.772;2023-02-19T03:32:03;101922.53;;;9.62;100.00
55490;BME280;44029;52.956;4.772;2023-02-19T03:34:36;101926.72;;;9.65;100.00
55490;BME280;44029;52.956;4.772;2023-02-19T03:39:39;101933.78;;;9.34;100.00
55490;BME280;44029;52.956;4.772;2023-02-19T03:42:24;101936.25;;;9.56;100.00
55490;BME280;44029;52.956;4.772;2023-02-19T03:45:30;101949.78;;;9.37;100.00
55490;BME280;44029;52.956;4.772;2023-02-19T03:48:06;101959.41;;;9.46;100.00
55490;BME280;44029;52.956;4.772;2023-02-19T03:50:46;101963.19;;;9.45;100.00
55490;BME280;44029;52.956;4.772;2023-02-19T03:53:22;101969.16;;;9.22;100.00
55490;BME280;44029;52.956;4.772;2023-02-19T03:56:05;101971.41;;;9.45;100.00
55490;BME280;44029;52.956;4.772;2023-02-19T03:58:50;101976.69;;;9.34;100.00
55490;BME280;44029;52.956;4.772;2023-02-19T04:01:38;101988.06;;;9.37;100.00
55490;BME280;44029;52.956;4.772;2023-02-19T04:04:15;101982.97;;;9.47;100.00
55490;BME280;44029;52.956;4.772;2023-02-19T04:06:44;101992.72;;;9.17;100.00
55490;BME280;44029;52.956;4.772;2023-02-19T04:09:13;101993.13;;;9.20;100.00
55490;BME280;44029;52.956;4.772;2023-02-19T04:11:39;102000.50;;;9.20;100.00
55490;BME280;44029;52.956;4.772;2023-02-19T04:14:32;102017.09;;;9.32;100.00
55490;BME280;44029;52.956;4.772;2023-02-19T04:17:02;102022.78;;;9.23;100.00
55490;BME280;44029;52.956;4.772;2023-02-19T04:19:32;102026.78;;;9.21;100.00
55490;BME280;44029;52.956;4.772;2023-02-19T04:21:59;102031.84;;;9.24;100.00
55490;BME280;44029;52.956;4.772;2023-02-19T04:24:33;102038.56;;;9.28;100.00
55490;BME280;44029;52.956;4.772;2023-02-19T04:27:01;102032.25;;;9.21;100.00
55490;BME280;44029;52.956;4.772;2023-02-19T04:29:27;102033.31;;;9.06;100.00
55490;BME280;44029;52.956;4.772;2023-02-19T04:31:52;102040.06;;;9.11;100.00
55490;BME280;44029;52.956;4.772;2023-02-19T04:34:18;102043.59;;;9.04;100.00
55490;BME280;44029;52.956;4.772;2023-02-19T04:36:43;102044.25;;;9.06;100.00
55490;BME280;44029;52.956;4.772;2023-02-19T04:39:09;102054.13;;;9.01;100.00
55490;BME280;44029;52.956;4.772;2023-02-19T04:41:34;102044.44;;;9.05;100.00
55490;BME280;44029;52.956;4.772;2023-02-19T04:43:59;102047.84;;;9.07;100.00
55490;BME280;44029;52.956;4.772;2023-02-19T04:46:24;102051.19;;;9.02;100.00
55490;BME280;44029;52.956;4.772;2023-02-19T04:48:50;102057.50;;;9.09;100.00
55490;BME280;44029;52.956;4.772;2023-02-19T04:51:16;102058.31;;;9.10;100.00
55490;BME280;44029;52.956;4.772;2023-02-19T04:53:41;102061.72;;;9.05;100.00
55490;BME280;44029;52.956;4.772;2023-02-19T04:56:15;102065.06;;;9.14;100.00
55490;BME280;44029;52.956;4.772;2023-02-19T04:58:41;102065.91;;;9.08;100.00
55490;BME280;44029;52.956;4.772;2023-02-19T05:01:07;102075.34;;;9.12;100.00
55490;BME280;44029;52.956;4.772;2023-02-19T05:03:33;102075.59;;;9.11;100.00
55490;BME280;44029;52.956;4.772;2023-02-19T05:06:05;102081.47;;;9.27;100.00
55490;BME280;44029;52.956;4.772;2023-02-19T05:08:31;102080.22;;;9.17;100.00
55490;BME280;44029;52.956;4.772;2023-02-19T05:11:01;102080.81;;;9.32;100.00
55490;BME280;44029;52.956;4.772;2023-02-19T05:13:28;102081.88;;;9.11;100.00
55490;BME280;44029;52.956;4.772;2023-02-19T05:15:55;102084.41;;;9.13;100.00
55490;BME280;44029;52.956;4.772;2023-02-19T05:18:20;102077.69;;;9.15;100.00
55490;BME280;44029;52.956;4.772;2023-02-19T05:20:46;102074.31;;;9.20;100.00
55490;BME280;44029;52.956;4.772;2023-02-19T05:23:11;102089.88;;;9.13;100.00
55490;BME280;44029;52.956;4.772;2023-02-19T05:25:36;102090.94;;;9.12;100.00
55490;BME280;44029;52.956;4.772;2023-02-19T05:28:02;102097.84;;;9.01;100.00
55490;BME280;44029;52.956;4.772;2023-02-19T05:30:47;102106.69;;;9.09;100.00
55490;BME280;44029;52.956;4.772;2023-02-19T05:33:14;102100.81;;;9.06;100.00
55490;BME280;44029;52.956;4.772;2023-02-19T05:35:42;102112.56;;;9.06;100.00
55490;BME280;44029;52.956;4.772;2023-02-19T05:38:08;102112.34;;;8.88;100.00
55490;BME280;44029;52.956;4.772;2023-02-19T05:40:34;102116.53;;;8.84;100.00
55490;BME280;44029;52.956;4.772;2023-02-19T05:42:59;102119.69;;;8.74;100.00
55490;BME280;44029;52.956;4.772;2023-02-19T05:45:25;102119.03;;;8.65;100.00
55490;BME280;44029;52.956;4.772;2023-02-19T05:47:50;102120.25;;;8.56;100.00
55490;BME280;44029;52.956;4.772;2023-02-19T05:50:15;102132.66;;;8.59;100.00
55490;BME280;44029;52.956;4.772;2023-02-19T05:52:41;102140.66;;;8.60;100.00
55490;BME280;44029;52.956;4.772;2023-02-19T05:55:07;102143.56;;;8.52;100.00
55490;BME280;44029;52.956;4.772;2023-02-19T05:57:33;102147.53;;;8.43;100.00
55490;BME280;44029;52.956;4.772;2023-02-19T06:00:03;102145.66;;;8.50;100.00
55490;BME280;44029;52.956;4.772;2023-02-19T06:02:29;102145.03;;;8.48;100.00
55490;BME280;44029;52.956;4.772;2023-02-19T06:04:54;102139.34;;;8.43;100.00
55490;BME280;44029;52.956;4.772;2023-02-19T06:07:19;102145.22;;;8.46;100.00
55490;BME280;44029;52.956;4.772;2023-02-19T06:09:45;102149.34;;;8.36;100.00
55490;BME280;44029;52.956;4.772;2023-02-19T06:12:10;102156.28;;;8.38;100.00
55490;BME280;44029;52.956;4.772;2023-02-19T06:14:35;102165.72;;;8.36;100.00
55490;BME280;44029;52.956;4.772;2023-02-19T06:17:01;102173.72;;;8.37;100.00
55490;BME280;44029;52.956;4.772;2023-02-19T06:19:26;102171.28;;;8.49;100.00
55490;BME280;44029;52.956;4.772;2023-02-19T06:21:51;102177.09;;;8.39;100.00
55490;BME280;44029;52.956;4.772;2023-02-19T06:24:17;102188.34;;;8.23;100.00
55490;BME280;44029;52.956;4.772;2023-02-19T06:26:42;102191.56;;;8.33;100.00
55490;BME280;44029;52.956;4.772;2023-02-19T06:29:07;102196.25;;;8.11;100.00
55490;BME280;44029;52.956;4.772;2023-02-19T06:31:32;102212.63;;;8.11;100.00
55490;BME280;44029;52.956;4.772;2023-02-19T06:33:58;102216.63;;;7.59;100.00
55490;BME280;44029;52.956;4.772;2023-02-19T06:36:23;102232.50;;;7.48;100.00
55490;BME280;44029;52.956;4.772;2023-02-19T06:38:49;102239.56;;;7.43;100.00
55490;BME280;44029;52.956;4.772;2023-02-19T06:41:14;102245.88;;;7.65;100.00
55490;BME280;44029;52.956;4.772;2023-02-19T06:43:40;102254.34;;;7.55;100.00
55490;BME280;44029;52.956;4.772;2023-02-19T06:46:06;102266.56;;;7.38;100.00
55490;BME280;44029;52.956;4.772;2023-02-19T06:48:32;102269.09;;;7.39;100.00
55490;BME280;44029;52.956;4.772;2023-02-19T06:50:58;102273.84;;;7.30;100.00
55490;BME280;44029;52.956;4.772;2023-02-19T06:53:23;102281.03;;;7.38;100.00
55490;BME280;44029;52.956;4.772;2023-02-19T06:56:04;102284.81;;;7.59;100.00
55490;BME280;44029;52.956;4.772;2023-02-19T06:58:31;102293.06;;;7.44;100.00
55490;BME280;44029;52.956;4.772;2023-02-19T07:00:56;102299.09;;;7.39;100.00
55490;BME280;44029;52.956;4.772;2023-02-19T07:03:22;102308.38;;;7.45;100.00
55490;BME280;44029;52.956;4.772;2023-02-19T07:05:48;102307.88;;;7.56;100.00
55490;BME280;44029;52.956;4.772;2023-02-19T07:08:13;102309.63;;;7.64;100.00
55490;BME280;44029;52.956;4.772;2023-02-19T07:10:38;102316.50;;;7.60;100.00
55490;BME280;44029;52.956;4.772;2023-02-19T07:13:04;102317.53;;;7.37;100.00
55490;BME280;44029;52.956;4.772;2023-02-19T07:15:29;102325.31;;;7.40;100.00
55490;BME280;44029;52.956;4.772;2023-02-19T07:17:54;102318.28;;;7.31;100.00
55490;BME280;44029;52.956;4.772;2023-02-19T07:20:20;102313.88;;;7.30;100.00
55490;BME280;44029;52.956;4.772;2023-02-19T07:22:45;102318.31;;;7.52;100.00
55490;BME280;44029;52.956;4.772;2023-02-19T07:25:10;102335.06;;;7.49;100.00
55490;BME280;44029;52.956;4.772;2023-02-19T07:27:36;102337.78;;;7.49;100.00
55490;BME280;44029;52.956;4.772;2023-02-19T07:30:02;102348.03;;;7.47;100.00
55490;BME280;44029;52.956;4.772;2023-02-19T07:32:28;102358.97;;;7.32;100.00
55490;BME280;44029;52.956;4.772;2023-02-19T07:34:53;102353.34;;;7.34;100.00
55490;BME280;44029;52.956;4.772;2023-02-19T07:37:18;102360.28;;;7.36;100.00
55490;BME280;44029;52.956;4.772;2023-02-19T07:39:44;102363.03;;;7.22;100.00
55490;BME280;44029;52.956;4.772;2023-02-19T07:42:09;102373.09;;;7.36;100.00
55490;BME280;44029;52.956;4.772;2023-02-19T07:44:34;102379.69;;;7.27;100.00
55490;BME280;44029;52.956;4.772;2023-02-19T07:47:00;102374.13;;;7.35;100.00
55490;BME280;44029;52.956;4.772;2023-02-19T07:49:25;102383.47;;;7.26;100.00
55490;BME280;44029;52.956;4.772;2023-02-19T07:51:50;102388.13;;;7.32;100.00
55490;BME280;44029;52.956;4.772;2023-02-19T07:54:16;102396.97;;;7.34;100.00
55490;BME280;44029;52.956;4.772;2023-02-19T07:56:41;102396.88;;;7.42;100.00
55490;BME280;44029;52.956;4.772;2023-02-19T07:59:06;102409.94;;;7.32;100.00
55490;BME280;44029;52.956;4.772;2023-02-19T08:01:32;102403.56;;;7.25;100.00
55490;BME280;44029;52.956;4.772;2023-02-19T08:04:16;102410.44;;;7.21;100.00
55490;BME280;44029;52.956;4.772;2023-02-19T08:06:41;102394.16;;;7.42;100.00
55490;BME280;44029;52.956;4.772;2023-02-19T08:09:07;102376.22;;;7.54;100.00
55490;BME280;44029;52.956;4.772;2023-02-19T08:11:33;102367.78;;;7.49;100.00
55490;BME280;44029;52.956;4.772;2023-02-19T08:14:17;102376.56;;;7.45;100.00
55490;BME280;44029;52.956;4.772;2023-02-19T08:16:50;102382.16;;;7.58;100.00
55490;BME280;44029;52.956;4.772;2023-02-19T08:19:16;102391.41;;;7.42;100.00
55490;BME280;44029;52.956;4.772;2023-02-19T08:21:41;102386.06;;;7.70;100.00
55490;BME280;44029;52.956;4.772;2023-02-19T08:24:07;102390.28;;;7.73;100.00
55490;BME280;44029;52.956;4.772;2023-02-19T08:26:33;102395.81;;;7.80;100.00
55490;BME280;44029;52.956;4.772;2023-02-19T08:28:58;102402.25;;;7.93;100.00
55490;BME280;44029;52.956;4.772;2023-02-19T08:31:24;102396.41;;;7.97;100.00
55490;BME280;44029;52.956;4.772;2023-02-19T08:33:49;102384.25;;;7.99;100.00
55490;BME280;44029;52.956;4.772;2023-02-19T08:36:15;102395.25;;;8.06;100.00
55490;BME280;44029;52.956;4.772;2023-02-19T08:38:40;102392.53;;;8.06;100.00
55490;BME280;44029;52.956;4.772;2023-02-19T08:41:07;102402.59;;;8.05;100.00
55490;BME280;44029;52.956;4.772;2023-02-19T08:43:33;102400.72;;;8.27;100.00
55490;BME280;44029;52.956;4.772;2023-02-19T08:45:59;102401.84;;;8.40;100.00
55490;BME280;44029;52.956;4.772;2023-02-19T08:48:24;102405.13;;;8.50;100.00
55490;BME280;44029;52.956;4.772;2023-02-19T08:50:58;102404.53;;;8.83;100.00
55490;BME280;44029;52.956;4.772;2023-02-19T08:53:25;102416.50;;;8.82;100.00
55490;BME280;44029;52.956;4.772;2023-02-19T08:55:51;102427.47;;;8.60;100.00
55490;BME280;44029;52.956;4.772;2023-02-19T08:58:16;102417.19;;;8.41;100.00
55490;BME280;44029;52.956;4.772;2023-02-19T09:00:41;102442.41;;;8.21;100.00
55490;BME280;44029;52.956;4.772;2023-02-19T09:03:08;102452.06;;;8.39;100.00
55490;BME280;44029;52.956;4.772;2023-02-19T09:05:34;102459.50;;;8.45;100.00
55490;BME280;44029;52.956;4.772;2023-02-19T09:07:59;102438.41;;;8.39;100.00
55490;BME280;44029;52.956;4.772;2023-02-19T09:10:24;102439.38;;;8.31;100.00
55490;BME280;44029;52.956;4.772;2023-02-19T09:12:50;102432.88;;;8.32;100.00
55490;BME280;44029;52.956;4.772;2023-02-19T09:15:15;102442.16;;;8.16;100.00
55490;BME280;44029;52.956;4.772;2023-02-19T09:17:40;102447.91;;;8.00;100.00
55490;BME280;44029;52.956;4.772;2023-02-19T09:20:06;102452.44;;;8.14;100.00
55490;BME280;44029;52.956;4.772;2023-02-19T09:22:32;102465.69;;;8.17;100.00
55490;BME280;44029;52.956;4.772;2023-02-19T09:24:57;102476.28;;;8.05;100.00
55490;BME280;44029;52.956;4.772;2023-02-19T09:27:22;102463.56;;;8.12;100.00
55490;BME280;44029;52.956;4.772;2023-02-19T09:29:48;102466.69;;;8.31;100.00
55490;BME280;44029;52.956;4.772;2023-02-19T09:32:13;102464.56;;;8.48;100.00
55490;BME280;44029;52.956;4.772;2023-02-19T09:34:39;102473.25;;;8.37;100.00
55490;BME280;44029;52.956;4.772;2023-02-19T09:37:05;102484.63;;;8.62;100.00
55490;BME280;44029;52.956;4.772;2023-02-19T09:39:31;102485.72;;;8.67;100.00
55490;BME280;44029;52.956;4.772;2023-02-19T09:42:00;102488.34;;;8.76;100.00
55490;BME280;44029;52.956;4.772;2023-02-19T09:44:29;102497.03;;;8.86;100.00
55490;BME280;44029;52.956;4.772;2023-02-19T09:46:57;102492.75;;;8.77;100.00
55490;BME280;44029;52.956;4.772;2023-02-19T09:49:35;102510.94;;;8.91;100.00
55490;BME280;44029;52.956;4.772;2023-02-19T09:54:46;102519.56;;;8.45;100.00
55490;BME280;44029;52.956;4.772;2023-02-19T09:57:15;102528.09;;;8.57;100.00
55490;BME280;44029;52.956;4.772;2023-02-19T09:59:45;102534.66;;;8.62;100.00
55490;BME280;44029;52.956;4.772;2023-02-19T10:04:41;102528.53;;;8.60;100.00
55490;BME280;44029;52.956;4.772;2023-02-19T10:07:18;102523.63;;;8.77;100.00
55490;BME280;44029;52.956;4.772;2023-02-19T10:09:49;102533.16;;;8.81;100.00
55490;BME280;44029;52.956;4.772;2023-02-19T10:12:28;102533.47;;;8.93;100.00
55490;BME280;44029;52.956;4.772;2023-02-19T10:14:58;102528.38;;;8.90;100.00
55490;BME280;44029;52.956;4.772;2023-02-19T10:17:29;102534.25;;;8.87;100.00
55490;BME280;44029;52.956;4.772;2023-02-19T10:19:55;102539.72;;;8.87;100.00
55490;BME280;44029;52.956;4.772;2023-02-19T10:22:21;102548.03;;;8.79;100.00
55490;BME280;44029;52.956;4.772;2023-02-19T10:24:53;102539.03;;;9.06;100.00
55490;BME280;44029;52.956;4.772;2023-02-19T10:27:19;102533.06;;;8.96;100.00
55490;BME280;44029;52.956;4.772;2023-02-19T10:29:46;102518.84;;;9.07;100.00
55490;BME280;44029;52.956;4.772;2023-02-19T10:32:24;102519.66;;;9.36;100.00
55490;BME280;44029;52.956;4.772;2023-02-19T10:35:25;102514.19;;;9.71;100.00
55490;BME280;44029;52.956;4.772;2023-02-19T10:37:50;102521.31;;;9.31;100.00
55490;BME280;44029;52.956;4.772;2023-02-19T10:40:18;102525.25;;;9.21;100.00
55490;BME280;44029;52.956;4.772;2023-02-19T10:42:46;102527.44;;;9.04;100.00
55490;BME280;44029;52.956;4.772;2023-02-19T10:45:21;102545.38;;;9.07;100.00
55490;BME280;44029;52.956;4.772;2023-02-19T10:47:48;102547.63;;;9.32;100.00
55490;BME280;44029;52.956;4.772;2023-02-19T10:50:35;102558.13;;;9.28;100.00
55490;BME280;44029;52.956;4.772;2023-02-19T10:53:20;102563.44;;;9.64;100.00
55490;BME280;44029;52.956;4.772;2023-02-19T10:55:47;102570.41;;;9.39;100.00
55490;BME280;44029;52.956;4.772;2023-02-19T10:58:24;102574.97;;;9.60;100.00
55490;BME280;44029;52.956;4.772;2023-02-19T11:01:14;102581.25;;;9.89;100.00
55490;BME280;44029;52.956;4.772;2023-02-19T11:03:40;102577.13;;;9.71;100.00
55490;BME280;44029;52.956;4.772;2023-02-19T11:06:08;102570.09;;;9.97;100.00
55490;BME280;44029;52.956;4.772;2023-02-19T11:08:55;102570.28;;;9.89;100.00
55490;BME280;44029;52.956;4.772;2023-02-19T11:11:41;102563.19;;;9.66;100.00
55490;BME280;44029;52.956;4.772;2023-02-19T11:14:15;102540.81;;;9.91;100.00
55490;BME280;44029;52.956;4.772;2023-02-19T11:16:46;102554.88;;;9.81;100.00
55490;BME280;44029;52.956;4.772;2023-02-19T11:19:24;102555.69;;;10.30;100.00
55490;BME280;44029;52.956;4.772;2023-02-19T11:21:51;102555.88;;;10.15;100.00
55490;BME280;44029;52.956;4.772;2023-02-19T11:24:36;102556.09;;;10.26;100.00
55490;BME280;44029;52.956;4.772;2023-02-19T11:27:06;102552.34;;;10.34;100.00
55490;BME280;44029;52.956;4.772;2023-02-19T11:29:33;102554.09;;;10.42;100.00
55490;BME280;44029;52.956;4.772;2023-02-19T11:34:45;102549.41;;;10.36;100.00
55490;BME280;44029;52.956;4.772;2023-02-19T11:37:20;102551.19;;;10.09;100.00
55490;BME280;44029;52.956;4.772;2023-02-19T11:39:47;102556.25;;;10.12;100.00
55490;BME280;44029;52.956;4.772;2023-02-19T11:53:25;102562.97;;;10.57;100.00
55490;BME280;44029;52.956;4.772;2023-02-19T11:56:20;102569.53;;;10.83;100.00
55490;BME280;44029;52.956;4.772;2023-02-19T12:05:30;102581.56;;;10.89;100.00
55490;BME280;44029;52.956;4.772;2023-02-19T12:26:38;102622.59;;;10.49;100.00
55490;BME280;44029;52.956;4.772;2023-02-19T12:34:48;102620.34;;;10.72;100.00
55490;BME280;44029;52.956;4.772;2023-02-19T12:43:18;102629.66;;;10.85;100.00
55490;BME280;44029;52.956;4.772;2023-02-19T12:45:52;102617.00;;;10.90;100.00
55490;BME280;44029;52.956;4.772;2023-02-19T12:50:55;102608.94;;;10.69;100.00
55490;BME280;44029;52.956;4.772;2023-02-19T12:53:50;102611.28;;;10.78;100.00
55490;BME280;44029;52.956;4.772;2023-02-19T12:56:43;102623.75;;;10.94;100.00
55490;BME280;44029;52.956;4.772;2023-02-19T13:02:22;102635.75;;;10.93;100.00
55490;BME280;44029;52.956;4.772;2023-02-19T13:05:07;102623.97;;;10.99;100.00
55490;BME280;44029;52.956;4.772;2023-02-19T13:07:57;102632.63;;;11.10;100.00
55490;BME280;44029;52.956;4.772;2023-02-19T13:10:30;102621.19;;;10.73;100.00
55490;BME280;44029;52.956;4.772;2023-02-19T13:13:04;102622.25;;;10.92;100.00
55490;BME280;44029;52.956;4.772;2023-02-19T13:15:35;102626.47;;;10.74;100.00
55490;BME280;44029;52.956;4.772;2023-02-19T13:18:04;102644.84;;;10.94;100.00
55490;BME280;44029;52.956;4.772;2023-02-19T13:20:37;102647.56;;;10.87;100.00
55490;BME280;44029;52.956;4.772;2023-02-19T13:23:22;102657.47;;;10.88;100.00
55490;BME280;44029;52.956;4.772;2023-02-19T13:34:37;102636.03;;;10.37;100.00
55490;BME280;44029;52.956;4.772;2023-02-19T13:37:05;102637.88;;;10.30;100.00
55490;BME280;44029;52.956;4.772;2023-02-19T13:39:32;102631.22;;;10.39;100.00
55490;BME280;44029;52.956;4.772;2023-02-19T13:41:58;102636.38;;;10.20;100.00
55490;BME280;44029;52.956;4.772;2023-02-19T13:44:26;102649.22;;;10.26;100.00
55490;BME280;44029;52.956;4.772;2023-02-19T13:46:52;102637.44;;;10.26;100.00
55490;BME280;44029;52.956;4.772;2023-02-19T13:52:00;102636.50;;;10.40;100.00
55490;BME280;44029;52.956;4.772;2023-02-19T13:54:32;102633.19;;;10.17;100.00
55490;BME280;44029;52.956;4.772;2023-02-19T13:57:24;102617.91;;;10.36;100.00
55490;BME280;44029;52.956;4.772;2023-02-19T13:59:57;102612.31;;;10.16;100.00
55490;BME280;44029;52.956;4.772;2023-02-19T14:02:27;102610.66;;;10.21;100.00
55490;BME280;44029;52.956;4.772;2023-02-19T14:04:53;102602.22;;;10.23;100.00
55490;BME280;44029;52.956;4.772;2023-02-19T14:08:06;102604.16;;;10.29;100.00
55490;BME280;44029;52.956;4.772;2023-02-19T14:10:11;102604.03;;;10.44;100.00
55490;BME280;44029;52.956;4.772;2023-02-19T14:12:37;102611.66;;;10.14;100.00
55490;BME280;44029;52.956;4.772;2023-02-19T14:17:49;102599.78;;;10.35;100.00
55490;BME280;44029;52.956;4.772;2023-02-19T14:30:53;102593.28;;;10.49;100.00
55490;BME280;44029;52.956;4.772;2023-02-19T14:33:22;102600.00;;;10.40;100.00
55490;BME280;44029;52.956;4.772;2023-02-19T14:35:52;102603.28;;;10.22;100.00
55490;BME280;44029;52.956;4.772;2023-02-19T14:38:26;102598.50;;;10.31;100.00
55490;BME280;44029;52.956;4.772;2023-02-19T14:40:53;102613.97;;;10.10;100.00
55490;BME280;44029;52.956;4.772;2023-02-19T14:43:21;102603.06;;;10.17;100.00
55490;BME280;44029;52.956;4.772;2023-02-19T14:45:52;102603.91;;;10.17;100.00